Landrum, Texas
Current Conditions -  °F | °C
As of 12:52 AM on Friday 31 Oct 2014 (Local Time) from KHRL Reporting Station
Clear Clear  
Wind Chill: 70°   Ceiling: Unl
Heat Index: 70°   Visibility: 10mi
Dew Point: 68°   Wind: 0mph
Humidity: 93%   Direction: NA
Pressure: 30.07"   Gusts: NA
Location:  26.1784°N, 97.6678°W
Report Text: KHRL 310552Z 00000KT 10SM CLR 21/20 A3007 RMK AO2 SLP181 T02110200 10256 20200 403170178 51004
Loading
Personal Weather Stations






























Interactive Weather Map
Tropical Storm Tracking
New forecast layout! Learn more

10-Day Weather Forecast

Advertisements
Track Severe Weather on mobile